sensor_id;sensor_type;location;lat;lon;timestamp;temperature;humidity
26803;DHT22;14378;51.796;5.808;2023-07-08T00:06:01;21.70;92.00
26803;DHT22;14378;51.796;5.808;2023-07-08T00:08:03;21.70;92.10
26803;DHT22;14378;51.796;5.808;2023-07-08T00:10:12;21.70;92.20
26803;DHT22;14378;51.796;5.808;2023-07-08T00:12:13;21.70;92.40
26803;DHT22;14378;51.796;5.808;2023-07-08T00:14:14;21.60;92.30
26803;DHT22;14378;51.796;5.808;2023-07-08T00:16:17;21.60;92.30
26803;DHT22;14378;51.796;5.808;2023-07-08T00:18:23;21.60;92.50
26803;DHT22;14378;51.796;5.808;2023-07-08T00:20:35;21.60;92.50
26803;DHT22;14378;51.796;5.808;2023-07-08T00:22:37;21.60;92.50
26803;DHT22;14378;51.796;5.808;2023-07-08T00:24:41;21.60;92.40
26803;DHT22;14378;51.796;5.808;2023-07-08T00:26:45;21.50;92.40
26803;DHT22;14378;51.796;5.808;2023-07-08T00:28:47;21.50;92.50
26803;DHT22;14378;51.796;5.808;2023-07-08T00:30:48;21.50;92.70
26803;DHT22;14378;51.796;5.808;2023-07-08T00:32:51;21.50;92.60
26803;DHT22;14378;51.796;5.808;2023-07-08T00:34:57;21.50;92.80
26803;DHT22;14378;51.796;5.808;2023-07-08T00:36:58;21.40;92.70
26803;DHT22;14378;51.796;5.808;2023-07-08T00:38:59;21.40;92.70
26803;DHT22;14378;51.796;5.808;2023-07-08T00:41:10;21.40;92.90
26803;DHT22;14378;51.796;5.808;2023-07-08T00:43:15;21.40;93.00
26803;DHT22;14378;51.796;5.808;2023-07-08T00:45:40;21.30;92.80
26803;DHT22;14378;51.796;5.808;2023-07-08T00:47:43;21.30;93.20
26803;DHT22;14378;51.796;5.808;2023-07-08T00:49:56;21.30;93.00
26803;DHT22;14378;51.796;5.808;2023-07-08T00:52:39;21.30;93.00
26803;DHT22;14378;51.796;5.808;2023-07-08T00:54:40;21.30;93.20
26803;DHT22;14378;51.796;5.808;2023-07-08T00:56:54;21.20;93.10
26803;DHT22;14378;51.796;5.808;2023-07-08T00:59:02;21.20;93.20
26803;DHT22;14378;51.796;5.808;2023-07-08T01:01:07;21.20;93.00
26803;DHT22;14378;51.796;5.808;2023-07-08T01:03:09;21.20;93.00
26803;DHT22;14378;51.796;5.808;2023-07-08T01:05:21;21.20;93.30
26803;DHT22;14378;51.796;5.808;2023-07-08T01:07:25;21.20;93.30
26803;DHT22;14378;51.796;5.808;2023-07-08T01:09:33;21.10;93.50
26803;DHT22;14378;51.796;5.808;2023-07-08T01:11:37;21.10;93.40
26803;DHT22;14378;51.796;5.808;2023-07-08T01:13:42;21.10;93.30
26803;DHT22;14378;51.796;5.808;2023-07-08T01:15:47;21.10;93.40
26803;DHT22;14378;51.796;5.808;2023-07-08T01:17:50;21.10;93.50
26803;DHT22;14378;51.796;5.808;2023-07-08T01:19:54;21.10;93.60
26803;DHT22;14378;51.796;5.808;2023-07-08T01:22:04;21.00;93.50
26803;DHT22;14378;51.796;5.808;2023-07-08T01:24:10;21.00;93.60
26803;DHT22;14378;51.796;5.808;2023-07-08T01:26:13;21.00;93.70
26803;DHT22;14378;51.796;5.808;2023-07-08T01:28:15;21.00;93.70
26803;DHT22;14378;51.796;5.808;2023-07-08T01:30:16;20.90;93.50
26803;DHT22;14378;51.796;5.808;2023-07-08T01:32:17;20.90;93.60
26803;DHT22;14378;51.796;5.808;2023-07-08T01:34:19;20.90;93.80
26803;DHT22;14378;51.796;5.808;2023-07-08T01:36:22;20.90;93.60
26803;DHT22;14378;51.796;5.808;2023-07-08T01:38:31;20.90;93.80
26803;DHT22;14378;51.796;5.808;2023-07-08T01:40:37;20.90;93.70
26803;DHT22;14378;51.796;5.808;2023-07-08T01:42:38;20.90;93.80
26803;DHT22;14378;51.796;5.808;2023-07-08T01:44:40;20.90;93.80
26803;DHT22;14378;51.796;5.808;2023-07-08T01:46:42;20.90;94.10
26803;DHT22;14378;51.796;5.808;2023-07-08T01:48:48;20.90;93.90
26803;DHT22;14378;51.796;5.808;2023-07-08T01:52:51;20.90;93.80
26803;DHT22;14378;51.796;5.808;2023-07-08T01:54:55;20.90;93.80
26803;DHT22;14378;51.796;5.808;2023-07-08T01:56:57;20.90;94.20
26803;DHT22;14378;51.796;5.808;2023-07-08T01:58:59;20.90;93.80
26803;DHT22;14378;51.796;5.808;2023-07-08T02:01:03;20.80;94.00
26803;DHT22;14378;51.796;5.808;2023-07-08T02:03:06;20.80;93.90
26803;DHT22;14378;51.796;5.808;2023-07-08T02:05:07;20.90;94.20
26803;DHT22;14378;51.796;5.808;2023-07-08T02:07:09;20.90;94.00
26803;DHT22;14378;51.796;5.808;2023-07-08T02:09:09;20.90;94.40
26803;DHT22;14378;51.796;5.808;2023-07-08T02:11:12;20.80;94.50
26803;DHT22;14378;51.796;5.808;2023-07-08T02:13:13;20.80;94.50
26803;DHT22;14378;51.796;5.808;2023-07-08T02:15:15;20.80;94.40
26803;DHT22;14378;51.796;5.808;2023-07-08T02:17:16;20.80;94.40
26803;DHT22;14378;51.796;5.808;2023-07-08T02:19:19;20.80;94.60
26803;DHT22;14378;51.796;5.808;2023-07-08T02:21:22;20.80;94.50
26803;DHT22;14378;51.796;5.808;2023-07-08T02:23:24;20.70;94.70
26803;DHT22;14378;51.796;5.808;2023-07-08T02:25:28;20.80;94.80
26803;DHT22;14378;51.796;5.808;2023-07-08T02:27:29;20.80;94.80
26803;DHT22;14378;51.796;5.808;2023-07-08T02:29:31;20.70;94.90
26803;DHT22;14378;51.796;5.808;2023-07-08T02:31:33;20.70;94.80
26803;DHT22;14378;51.796;5.808;2023-07-08T02:33:34;20.70;94.80
26803;DHT22;14378;51.796;5.808;2023-07-08T02:35:36;20.70;94.80
26803;DHT22;14378;51.796;5.808;2023-07-08T02:37:36;20.70;94.80
26803;DHT22;14378;51.796;5.808;2023-07-08T02:39:37;20.70;94.80
26803;DHT22;14378;51.796;5.808;2023-07-08T02:41:39;20.70;94.80
26803;DHT22;14378;51.796;5.808;2023-07-08T02:43:40;20.60;94.80
26803;DHT22;14378;51.796;5.808;2023-07-08T02:45:45;20.60;94.80
26803;DHT22;14378;51.796;5.808;2023-07-08T02:47:50;20.60;94.90
26803;DHT22;14378;51.796;5.808;2023-07-08T02:49:51;20.60;94.80
26803;DHT22;14378;51.796;5.808;2023-07-08T02:51:52;20.60;95.00
26803;DHT22;14378;51.796;5.808;2023-07-08T02:53:54;20.50;95.00
26803;DHT22;14378;51.796;5.808;2023-07-08T02:55:54;20.50;95.10
26803;DHT22;14378;51.796;5.808;2023-07-08T02:57:56;20.50;95.10
26803;DHT22;14378;51.796;5.808;2023-07-08T02:59:57;20.50;95.30
26803;DHT22;14378;51.796;5.808;2023-07-08T03:01:59;20.40;95.20
26803;DHT22;14378;51.796;5.808;2023-07-08T03:04:00;20.40;95.10
26803;DHT22;14378;51.796;5.808;2023-07-08T03:06:03;20.40;95.30
26803;DHT22;14378;51.796;5.808;2023-07-08T03:08:06;20.30;95.30
26803;DHT22;14378;51.796;5.808;2023-07-08T03:10:07;20.30;95.30
26803;DHT22;14378;51.796;5.808;2023-07-08T03:12:10;20.20;95.40
26803;DHT22;14378;51.796;5.808;2023-07-08T03:14:13;20.30;95.60
26803;DHT22;14378;51.796;5.808;2023-07-08T03:16:14;20.20;95.70
26803;DHT22;14378;51.796;5.808;2023-07-08T03:18:15;20.20;95.60
26803;DHT22;14378;51.796;5.808;2023-07-08T03:20:17;20.10;95.70
26803;DHT22;14378;51.796;5.808;2023-07-08T03:22:19;20.10;95.90
26803;DHT22;14378;51.796;5.808;2023-07-08T03:24:20;20.10;95.90
26803;DHT22;14378;51.796;5.808;2023-07-08T03:26:25;20.10;95.90
26803;DHT22;14378;51.796;5.808;2023-07-08T03:28:27;20.10;96.00
26803;DHT22;14378;51.796;5.808;2023-07-08T03:30:28;20.00;96.00
26803;DHT22;14378;51.796;5.808;2023-07-08T03:32:30;20.00;96.00
26803;DHT22;14378;51.796;5.808;2023-07-08T03:34:31;20.00;96.00
26803;DHT22;14378;51.796;5.808;2023-07-08T03:36:32;20.00;96.20
26803;DHT22;14378;51.796;5.808;2023-07-08T03:38:33;19.90;96.00
26803;DHT22;14378;51.796;5.808;2023-07-08T03:40:34;19.90;96.20
26803;DHT22;14378;51.796;5.808;2023-07-08T03:42:35;19.90;96.50
26803;DHT22;14378;51.796;5.808;2023-07-08T03:44:36;19.90;96.50
26803;DHT22;14378;51.796;5.808;2023-07-08T03:46:40;19.80;96.40
26803;DHT22;14378;51.796;5.808;2023-07-08T03:48:43;19.80;96.50
26803;DHT22;14378;51.796;5.808;2023-07-08T03:50:44;19.80;96.40
26803;DHT22;14378;51.796;5.808;2023-07-08T03:52:47;19.80;96.50
26803;DHT22;14378;51.796;5.808;2023-07-08T03:54:48;19.80;96.90
26803;DHT22;14378;51.796;5.808;2023-07-08T03:56:51;19.70;96.60
26803;DHT22;14378;51.796;5.808;2023-07-08T03:58:54;19.70;96.70
26803;DHT22;14378;51.796;5.808;2023-07-08T04:00:56;19.70;96.70
26803;DHT22;14378;51.796;5.808;2023-07-08T04:02:57;19.70;96.80
26803;DHT22;14378;51.796;5.808;2023-07-08T04:04:59;19.70;96.80
26803;DHT22;14378;51.796;5.808;2023-07-08T04:07:01;19.70;96.80
26803;DHT22;14378;51.796;5.808;2023-07-08T04:09:02;19.70;96.90
26803;DHT22;14378;51.796;5.808;2023-07-08T04:11:03;19.70;97.00
26803;DHT22;14378;51.796;5.808;2023-07-08T04:13:04;19.70;97.10
26803;DHT22;14378;51.796;5.808;2023-07-08T04:15:08;19.60;96.90
26803;DHT22;14378;51.796;5.808;2023-07-08T04:17:09;19.70;97.00
26803;DHT22;14378;51.796;5.808;2023-07-08T04:19:18;19.60;97.20
26803;DHT22;14378;51.796;5.808;2023-07-08T04:21:21;19.60;97.00
26803;DHT22;14378;51.796;5.808;2023-07-08T04:23:23;19.60;97.20
26803;DHT22;14378;51.796;5.808;2023-07-08T04:25:24;19.60;97.30
26803;DHT22;14378;51.796;5.808;2023-07-08T04:27:25;19.60;97.30
26803;DHT22;14378;51.796;5.808;2023-07-08T04:29:26;19.60;97.30
26803;DHT22;14378;51.796;5.808;2023-07-08T04:31:30;19.60;97.30
26803;DHT22;14378;51.796;5.808;2023-07-08T04:33:31;19.60;97.30
26803;DHT22;14378;51.796;5.808;2023-07-08T04:35:32;19.60;97.30
26803;DHT22;14378;51.796;5.808;2023-07-08T04:37:33;19.60;97.20
26803;DHT22;14378;51.796;5.808;2023-07-08T04:39:34;19.60;97.40
26803;DHT22;14378;51.796;5.808;2023-07-08T04:41:37;19.60;97.20
26803;DHT22;14378;51.796;5.808;2023-07-08T04:43:42;19.60;97.30
26803;DHT22;14378;51.796;5.808;2023-07-08T04:45:47;19.60;97.20
26803;DHT22;14378;51.796;5.808;2023-07-08T04:47:51;19.70;97.20
26803;DHT22;14378;51.796;5.808;2023-07-08T04:49:54;19.70;97.30
26803;DHT22;14378;51.796;5.808;2023-07-08T04:51:55;19.70;97.30
26803;DHT22;14378;51.796;5.808;2023-07-08T04:53:56;19.70;97.50
26803;DHT22;14378;51.796;5.808;2023-07-08T04:55:57;19.70;97.40
26803;DHT22;14378;51.796;5.808;2023-07-08T04:57:59;19.70;97.40
26803;DHT22;14378;51.796;5.808;2023-07-08T05:00:15;19.70;97.60
26803;DHT22;14378;51.796;5.808;2023-07-08T05:02:17;19.80;97.40
26803;DHT22;14378;51.796;5.808;2023-07-08T05:04:21;19.80;97.40
26803;DHT22;14378;51.796;5.808;2023-07-08T05:06:24;19.80;97.30
26803;DHT22;14378;51.796;5.808;2023-07-08T05:08:25;19.80;97.30
26803;DHT22;14378;51.796;5.808;2023-07-08T05:10:26;19.90;97.30
26803;DHT22;14378;51.796;5.808;2023-07-08T05:12:27;19.90;97.30
26803;DHT22;14378;51.796;5.808;2023-07-08T05:14:28;19.90;97.30
26803;DHT22;14378;51.796;5.808;2023-07-08T05:16:29;19.90;97.50
26803;DHT22;14378;51.796;5.808;2023-07-08T05:18:31;19.90;97.40
26803;DHT22;14378;51.796;5.808;2023-07-08T05:20:32;19.90;97.50
26803;DHT22;14378;51.796;5.808;2023-07-08T05:22:35;20.00;97.50
26803;DHT22;14378;51.796;5.808;2023-07-08T05:24:36;20.00;97.80
26803;DHT22;14378;51.796;5.808;2023-07-08T05:26:37;20.00;97.50
26803;DHT22;14378;51.796;5.808;2023-07-08T05:28:38;20.00;97.50
26803;DHT22;14378;51.796;5.808;2023-07-08T05:30:41;20.10;97.50
26803;DHT22;14378;51.796;5.808;2023-07-08T05:32:44;20.10;97.40
26803;DHT22;14378;51.796;5.808;2023-07-08T05:34:45;20.10;97.50
26803;DHT22;14378;51.796;5.808;2023-07-08T05:36:46;20.10;97.60
26803;DHT22;14378;51.796;5.808;2023-07-08T05:38:48;20.20;97.70
26803;DHT22;14378;51.796;5.808;2023-07-08T05:40:56;20.20;97.70
26803;DHT22;14378;51.796;5.808;2023-07-08T05:43:02;20.20;97.90
26803;DHT22;14378;51.796;5.808;2023-07-08T05:45:04;20.30;97.80
26803;DHT22;14378;51.796;5.808;2023-07-08T05:47:10;20.30;97.70
26803;DHT22;14378;51.796;5.808;2023-07-08T05:49:13;20.40;97.90
26803;DHT22;14378;51.796;5.808;2023-07-08T05:51:14;20.40;97.90
26803;DHT22;14378;51.796;5.808;2023-07-08T05:53:19;20.40;98.00
26803;DHT22;14378;51.796;5.808;2023-07-08T05:55:21;20.50;98.00
26803;DHT22;14378;51.796;5.808;2023-07-08T05:57:23;20.50;97.90
26803;DHT22;14378;51.796;5.808;2023-07-08T05:59:24;20.50;98.00
26803;DHT22;14378;51.796;5.808;2023-07-08T06:01:25;20.60;98.20
26803;DHT22;14378;51.796;5.808;2023-07-08T06:03:26;20.70;98.40
26803;DHT22;14378;51.796;5.808;2023-07-08T06:05:27;20.70;98.30
26803;DHT22;14378;51.796;5.808;2023-07-08T06:07:28;20.80;98.10
26803;DHT22;14378;51.796;5.808;2023-07-08T06:09:29;20.80;98.10
26803;DHT22;14378;51.796;5.808;2023-07-08T06:11:30;20.90;98.30
26803;DHT22;14378;51.796;5.808;2023-07-08T06:13:31;21.00;98.20
26803;DHT22;14378;51.796;5.808;2023-07-08T06:15:32;21.10;98.30
26803;DHT22;14378;51.796;5.808;2023-07-08T06:17:33;21.20;98.30
26803;DHT22;14378;51.796;5.808;2023-07-08T06:19:34;21.30;98.10
26803;DHT22;14378;51.796;5.808;2023-07-08T06:21:36;21.40;98.10
26803;DHT22;14378;51.796;5.808;2023-07-08T06:23:37;21.50;97.60
26803;DHT22;14378;51.796;5.808;2023-07-08T06:25:38;21.60;97.80
26803;DHT22;14378;51.796;5.808;2023-07-08T06:27:39;21.70;97.90
26803;DHT22;14378;51.796;5.808;2023-07-08T06:29:40;21.80;97.30
26803;DHT22;14378;51.796;5.808;2023-07-08T06:31:42;21.90;97.20
26803;DHT22;14378;51.796;5.808;2023-07-08T06:33:43;22.00;97.50
26803;DHT22;14378;51.796;5.808;2023-07-08T06:35:50;22.00;97.40
26803;DHT22;14378;51.796;5.808;2023-07-08T06:37:51;22.20;97.30
26803;DHT22;14378;51.796;5.808;2023-07-08T06:39:55;22.30;96.80
26803;DHT22;14378;51.796;5.808;2023-07-08T06:41:56;22.40;96.80
26803;DHT22;14378;51.796;5.808;2023-07-08T06:44:02;22.50;96.20
26803;DHT22;14378;51.796;5.808;2023-07-08T06:46:06;22.60;96.80
26803;DHT22;14378;51.796;5.808;2023-07-08T06:48:07;22.70;96.30
26803;DHT22;14378;51.796;5.808;2023-07-08T06:50:08;22.80;96.70
26803;DHT22;14378;51.796;5.808;2023-07-08T06:52:09;22.90;95.90
26803;DHT22;14378;51.796;5.808;2023-07-08T06:54:14;23.00;95.50
26803;DHT22;14378;51.796;5.808;2023-07-08T06:56:15;23.10;95.90
26803;DHT22;14378;51.796;5.808;2023-07-08T06:58:16;23.20;95.50
26803;DHT22;14378;51.796;5.808;2023-07-08T07:00:20;23.30;95.60
26803;DHT22;14378;51.796;5.808;2023-07-08T07:02:22;23.40;95.60
26803;DHT22;14378;51.796;5.808;2023-07-08T07:04:24;23.60;95.40
26803;DHT22;14378;51.796;5.808;2023-07-08T07:06:26;23.60;95.20
26803;DHT22;14378;51.796;5.808;2023-07-08T07:08:27;23.70;95.40
26803;DHT22;14378;51.796;5.808;2023-07-08T07:10:28;23.80;95.00
26803;DHT22;14378;51.796;5.808;2023-07-08T07:12:29;23.90;94.90
26803;DHT22;14378;51.796;5.808;2023-07-08T07:14:30;24.10;95.50
26803;DHT22;14378;51.796;5.808;2023-07-08T07:16:31;24.20;94.50
26803;DHT22;14378;51.796;5.808;2023-07-08T07:18:32;24.30;94.70
26803;DHT22;14378;51.796;5.808;2023-07-08T07:20:35;24.40;94.60
26803;DHT22;14378;51.796;5.808;2023-07-08T07:22:36;24.50;94.50
26803;DHT22;14378;51.796;5.808;2023-07-08T07:24:37;24.60;93.90
26803;DHT22;14378;51.796;5.808;2023-07-08T07:26:38;24.70;93.80
26803;DHT22;14378;51.796;5.808;2023-07-08T07:28:40;24.90;94.40
26803;DHT22;14378;51.796;5.808;2023-07-08T07:30:44;25.00;94.50
26803;DHT22;14378;51.796;5.808;2023-07-08T07:32:45;25.20;94.20
26803;DHT22;14378;51.796;5.808;2023-07-08T07:34:47;25.30;94.20
26803;DHT22;14378;51.796;5.808;2023-07-08T07:36:49;25.40;93.40
26803;DHT22;14378;51.796;5.808;2023-07-08T07:38:50;25.50;93.20
26803;DHT22;14378;51.796;5.808;2023-07-08T07:40:52;25.60;92.90
26803;DHT22;14378;51.796;5.808;2023-07-08T07:42:54;25.70;93.50
26803;DHT22;14378;51.796;5.808;2023-07-08T07:44:55;25.80;93.40
26803;DHT22;14378;51.796;5.808;2023-07-08T07:46:56;26.00;93.60
26803;DHT22;14378;51.796;5.808;2023-07-08T07:48:58;26.10;92.70
26803;DHT22;14378;51.796;5.808;2023-07-08T07:51:00;26.30;93.70
26803;DHT22;14378;51.796;5.808;2023-07-08T07:53:01;26.50;93.60
26803;DHT22;14378;51.796;5.808;2023-07-08T07:55:03;26.60;93.20
26803;DHT22;14378;51.796;5.808;2023-07-08T07:57:04;26.80;92.90
26803;DHT22;14378;51.796;5.808;2023-07-08T07:59:05;26.90;92.30
26803;DHT22;14378;51.796;5.808;2023-07-08T08:01:07;27.00;92.70
26803;DHT22;14378;51.796;5.808;2023-07-08T08:03:07;27.10;92.40
26803;DHT22;14378;51.796;5.808;2023-07-08T08:05:08;27.30;92.20
26803;DHT22;14378;51.796;5.808;2023-07-08T08:07:09;27.40;92.50
26803;DHT22;14378;51.796;5.808;2023-07-08T08:09:10;27.50;92.00
26803;DHT22;14378;51.796;5.808;2023-07-08T08:11:12;27.60;92.50
26803;DHT22;14378;51.796;5.808;2023-07-08T08:13:13;27.70;93.00
26803;DHT22;14378;51.796;5.808;2023-07-08T08:15:14;27.70;91.10
26803;DHT22;14378;51.796;5.808;2023-07-08T08:17:15;27.80;91.70
26803;DHT22;14378;51.796;5.808;2023-07-08T08:19:16;28.00;91.70
26803;DHT22;14378;51.796;5.808;2023-07-08T08:21:17;28.10;92.30
26803;DHT22;14378;51.796;5.808;2023-07-08T08:23:18;28.20;92.10
26803;DHT22;14378;51.796;5.808;2023-07-08T08:25:20;28.40;91.30
26803;DHT22;14378;51.796;5.808;2023-07-08T08:27:22;28.40;90.80
26803;DHT22;14378;51.796;5.808;2023-07-08T08:29:23;28.50;90.80
26803;DHT22;14378;51.796;5.808;2023-07-08T08:31:24;28.70;90.30
26803;DHT22;14378;51.796;5.808;2023-07-08T08:33:24;28.80;90.30
26803;DHT22;14378;51.796;5.808;2023-07-08T08:35:27;29.00;90.60
26803;DHT22;14378;51.796;5.808;2023-07-08T08:37:28;29.20;91.30
26803;DHT22;14378;51.796;5.808;2023-07-08T08:39:28;29.40;91.60
26803;DHT22;14378;51.796;5.808;2023-07-08T08:41:33;29.40;91.50
26803;DHT22;14378;51.796;5.808;2023-07-08T08:43:36;29.50;91.00
26803;DHT22;14378;51.796;5.808;2023-07-08T08:45:49;29.60;90.80
26803;DHT22;14378;51.796;5.808;2023-07-08T08:48:02;29.70;91.00
26803;DHT22;14378;51.796;5.808;2023-07-08T08:52:18;29.80;90.60
26803;DHT22;14378;51.796;5.808;2023-07-08T08:54:19;29.90;89.30
26803;DHT22;14378;51.796;5.808;2023-07-08T08:56:29;29.90;89.60
26803;DHT22;14378;51.796;5.808;2023-07-08T08:58:42;30.00;90.20
26803;DHT22;14378;51.796;5.808;2023-07-08T09:01:24;30.00;90.10
26803;DHT22;14378;51.796;5.808;2023-07-08T09:04:07;30.20;90.10
26803;DHT22;14378;51.796;5.808;2023-07-08T09:05:46;30.30;90.00
26803;DHT22;14378;51.796;5.808;2023-07-08T09:08:12;30.50;90.40
26803;DHT22;14378;51.796;5.808;2023-07-08T09:10:25;30.70;90.10
26803;DHT22;14378;51.796;5.808;2023-07-08T09:12:32;30.70;87.60
26803;DHT22;14378;51.796;5.808;2023-07-08T09:14:36;30.80;89.10
26803;DHT22;14378;51.796;5.808;2023-07-08T09:21:51;31.30;86.80
26803;DHT22;14378;51.796;5.808;2023-07-08T09:23:51;31.40;88.00
26803;DHT22;14378;51.796;5.808;2023-07-08T09:26:02;31.50;88.10
26803;DHT22;14378;51.796;5.808;2023-07-08T09:28:06;31.60;86.20
26803;DHT22;14378;51.796;5.808;2023-07-08T09:30:16;31.80;85.30
26803;DHT22;14378;51.796;5.808;2023-07-08T09:32:21;32.10;86.20
26803;DHT22;14378;51.796;5.808;2023-07-08T09:34:37;32.30;86.50
26803;DHT22;14378;51.796;5.808;2023-07-08T09:36:59;32.60;85.30
26803;DHT22;14378;51.796;5.808;2023-07-08T09:39:01;32.80;82.70
26803;DHT22;14378;51.796;5.808;2023-07-08T09:41:04;32.80;81.70
26803;DHT22;14378;51.796;5.808;2023-07-08T09:43:27;32.90;82.00
26803;DHT22;14378;51.796;5.808;2023-07-08T09:45:29;32.90;81.60
26803;DHT22;14378;51.796;5.808;2023-07-08T09:47:40;33.00;86.40
26803;DHT22;14378;51.796;5.808;2023-07-08T09:49:44;33.30;84.40
26803;DHT22;14378;51.796;5.808;2023-07-08T09:51:46;33.30;83.50
26803;DHT22;14378;51.796;5.808;2023-07-08T09:53:47;33.40;82.70
26803;DHT22;14378;51.796;5.808;2023-07-08T09:55:48;33.60;83.60
26803;DHT22;14378;51.796;5.808;2023-07-08T09:57:52;33.70;81.90
26803;DHT22;14378;51.796;5.808;2023-07-08T10:00:00;33.80;81.40
26803;DHT22;14378;51.796;5.808;2023-07-08T10:04:36;34.20;86.00
26803;DHT22;14378;51.796;5.808;2023-07-08T10:06:37;34.30;84.20
26803;DHT22;14378;51.796;5.808;2023-07-08T10:08:42;34.40;82.60
26803;DHT22;14378;51.796;5.808;2023-07-08T10:10:46;34.50;82.90
26803;DHT22;14378;51.796;5.808;2023-07-08T10:12:59;34.50;80.90
26803;DHT22;14378;51.796;5.808;2023-07-08T10:17:44;34.70;81.70
26803;DHT22;14378;51.796;5.808;2023-07-08T10:19:45;34.90;82.50
26803;DHT22;14378;51.796;5.808;2023-07-08T10:22:11;35.00;81.60
26803;DHT22;14378;51.796;5.808;2023-07-08T10:24:21;35.20;81.50
26803;DHT22;14378;51.796;5.808;2023-07-08T10:26:35;35.40;80.00
26803;DHT22;14378;51.796;5.808;2023-07-08T10:28:53;35.50;81.00
26803;DHT22;14378;51.796;5.808;2023-07-08T10:31:20;35.70;78.00
26803;DHT22;14378;51.796;5.808;2023-07-08T10:34:22;35.70;76.40
26803;DHT22;14378;51.796;5.808;2023-07-08T10:36:38;35.90;76.10
26803;DHT22;14378;51.796;5.808;2023-07-08T10:43:37;36.40;75.20
26803;DHT22;14378;51.796;5.808;2023-07-08T10:48:41;36.40;73.60
26803;DHT22;14378;51.796;5.808;2023-07-08T10:55:29;36.90;80.10
26803;DHT22;14378;51.796;5.808;2023-07-08T11:00:07;37.10;80.30
26803;DHT22;14378;51.796;5.808;2023-07-08T11:07:40;37.40;74.80
26803;DHT22;14378;51.796;5.808;2023-07-08T11:09:56;37.80;74.40
26803;DHT22;14378;51.796;5.808;2023-07-08T11:12:52;37.80;73.50
26803;DHT22;14378;51.796;5.808;2023-07-08T11:14:46;37.90;72.70
26803;DHT22;14378;51.796;5.808;2023-07-08T11:17:11;37.90;73.40
26803;DHT22;14378;51.796;5.808;2023-07-08T11:19:32;38.10;72.90
26803;DHT22;14378;51.796;5.808;2023-07-08T11:21:40;38.20;73.80
26803;DHT22;14378;51.796;5.808;2023-07-08T11:26:03;38.40;71.80
26803;DHT22;14378;51.796;5.808;2023-07-08T11:28:08;38.40;72.90
26803;DHT22;14378;51.796;5.808;2023-07-08T11:30:21;38.60;73.90
26803;DHT22;14378;51.796;5.808;2023-07-08T11:32:27;38.70;74.50
26803;DHT22;14378;51.796;5.808;2023-07-08T11:34:29;38.80;72.60
26803;DHT22;14378;51.796;5.808;2023-07-08T11:36:31;38.90;73.00
26803;DHT22;14378;51.796;5.808;2023-07-08T11:38:34;38.90;73.30
26803;DHT22;14378;51.796;5.808;2023-07-08T11:40:49;39.00;71.70
26803;DHT22;14378;51.796;5.808;2023-07-08T11:42:59;39.10;69.80
26803;DHT22;14378;51.796;5.808;2023-07-08T11:45:01;39.20;73.30
26803;DHT22;14378;51.796;5.808;2023-07-08T11:49:38;39.60;71.80
26803;DHT22;14378;51.796;5.808;2023-07-08T11:51:44;39.70;73.30
26803;DHT22;14378;51.796;5.808;2023-07-08T11:53:49;39.70;73.40
26803;DHT22;14378;51.796;5.808;2023-07-08T11:58:26;39.80;68.40
26803;DHT22;14378;51.796;5.808;2023-07-08T12:00:31;39.90;71.60
26803;DHT22;14378;51.796;5.808;2023-07-08T12:03:31;40.00;71.00
26803;DHT22;14378;51.796;5.808;2023-07-08T12:05:14;40.10;72.70
26803;DHT22;14378;51.796;5.808;2023-07-08T12:07:19;40.40;70.70
26803;DHT22;14378;51.796;5.808;2023-07-08T12:09:28;40.60;73.40
26803;DHT22;14378;51.796;5.808;2023-07-08T12:11:34;40.60;73.40
26803;DHT22;14378;51.796;5.808;2023-07-08T12:13:36;40.50;71.70
26803;DHT22;14378;51.796;5.808;2023-07-08T12:15:37;40.50;73.50
26803;DHT22;14378;51.796;5.808;2023-07-08T12:17:39;40.50;71.50
26803;DHT22;14378;51.796;5.808;2023-07-08T12:19:42;40.60;69.80
26803;DHT22;14378;51.796;5.808;2023-07-08T12:21:49;40.60;67.10
26803;DHT22;14378;51.796;5.808;2023-07-08T12:23:51;40.60;67.10
26803;DHT22;14378;51.796;5.808;2023-07-08T12:25:53;40.70;68.30
26803;DHT22;14378;51.796;5.808;2023-07-08T12:27:54;40.60;65.60
26803;DHT22;14378;51.796;5.808;2023-07-08T12:29:57;40.70;68.40
26803;DHT22;14378;51.796;5.808;2023-07-08T12:31:58;40.80;68.90
26803;DHT22;14378;51.796;5.808;2023-07-08T12:34:00;41.00;66.50
26803;DHT22;14378;51.796;5.808;2023-07-08T12:36:01;41.30;64.70
26803;DHT22;14378;51.796;5.808;2023-07-08T12:40:43;41.60;64.60
26803;DHT22;14378;51.796;5.808;2023-07-08T12:42:45;41.60;64.10
26803;DHT22;14378;51.796;5.808;2023-07-08T12:44:52;41.70;61.30
26803;DHT22;14378;51.796;5.808;2023-07-08T12:46:54;41.50;62.30
26803;DHT22;14378;51.796;5.808;2023-07-08T12:48:55;41.60;64.10
26803;DHT22;14378;51.796;5.808;2023-07-08T12:50:56;41.70;63.30
26803;DHT22;14378;51.796;5.808;2023-07-08T12:52:59;41.90;62.90
26803;DHT22;14378;51.796;5.808;2023-07-08T12:55:07;41.90;59.20
26803;DHT22;14378;51.796;5.808;2023-07-08T12:57:08;41.90;62.40
26803;DHT22;14378;51.796;5.808;2023-07-08T12:59:29;42.00;61.40
26803;DHT22;14378;51.796;5.808;2023-07-08T13:02:17;42.00;60.10
26803;DHT22;14378;51.796;5.808;2023-07-08T13:04:22;42.20;63.80
26803;DHT22;14378;51.796;5.808;2023-07-08T13:06:37;42.30;62.20
26803;DHT22;14378;51.796;5.808;2023-07-08T13:08:39;42.30;62.10
26803;DHT22;14378;51.796;5.808;2023-07-08T13:10:42;42.40;62.80
26803;DHT22;14378;51.796;5.808;2023-07-08T13:12:44;42.40;61.10
26803;DHT22;14378;51.796;5.808;2023-07-08T13:14:46;42.50;62.20
26803;DHT22;14378;51.796;5.808;2023-07-08T13:16:48;42.50;64.80
26803;DHT22;14378;51.796;5.808;2023-07-08T13:18:50;42.50;65.90
26803;DHT22;14378;51.796;5.808;2023-07-08T13:20:53;42.70;64.80
26803;DHT22;14378;51.796;5.808;2023-07-08T13:22:59;42.70;61.10
26803;DHT22;14378;51.796;5.808;2023-07-08T13:25:09;42.80;59.10
26803;DHT22;14378;51.796;5.808;2023-07-08T13:27:23;42.80;59.30
26803;DHT22;14378;51.796;5.808;2023-07-08T13:29:25;42.80;58.90
26803;DHT22;14378;51.796;5.808;2023-07-08T13:31:38;42.80;60.60
26803;DHT22;14378;51.796;5.808;2023-07-08T13:36:09;42.90;60.90
26803;DHT22;14378;51.796;5.808;2023-07-08T13:38:22;42.80;58.20
26803;DHT22;14378;51.796;5.808;2023-07-08T13:40:27;43.00;59.90
26803;DHT22;14378;51.796;5.808;2023-07-08T13:42:29;43.00;58.90
26803;DHT22;14378;51.796;5.808;2023-07-08T13:44:37;43.00;59.50
26803;DHT22;14378;51.796;5.808;2023-07-08T13:47:00;43.00;59.70
26803;DHT22;14378;51.796;5.808;2023-07-08T13:49:26;43.10;57.90
26803;DHT22;14378;51.796;5.808;2023-07-08T13:51:32;43.20;58.60
26803;DHT22;14378;51.796;5.808;2023-07-08T13:53:47;43.20;59.10
26803;DHT22;14378;51.796;5.808;2023-07-08T13:56:08;43.20;57.60
26803;DHT22;14378;51.796;5.808;2023-07-08T13:58:18;43.20;58.30
26803;DHT22;14378;51.796;5.808;2023-07-08T14:00:19;43.20;58.50